sensor_id;sensor_type;location;lat;lon;timestamp;P1;P2;P0
66195;PMS7003;53000;45.182;5.736;2023-06-22T00:01:08;12.50;12.00;9.00
66195;PMS7003;53000;45.182;5.736;2023-06-22T00:03:34;14.75;13.00;10.00
66195;PMS7003;53000;45.182;5.736;2023-06-22T00:05:59;13.50;12.00;9.00
66195;PMS7003;53000;45.182;5.736;2023-06-22T00:08:24;15.50;14.50;9.50
66195;PMS7003;53000;45.182;5.736;2023-06-22T00:10:50;11.50;11.50;9.00
66195;PMS7003;53000;45.182;5.736;2023-06-22T00:13:16;14.50;11.75;9.00
66195;PMS7003;53000;45.182;5.736;2023-06-22T00:15:42;10.75;10.75;8.00
66195;PMS7003;53000;45.182;5.736;2023-06-22T00:18:09;10.50;10.50;8.00
66195;PMS7003;53000;45.182;5.736;2023-06-22T00:20:35;11.25;10.00;8.00
66195;PMS7003;53000;45.182;5.736;2023-06-22T00:23:05;13.50;11.00;9.50
66195;PMS7003;53000;45.182;5.736;2023-06-22T00:25:39;13.25;11.50;8.25
66195;PMS7003;53000;45.182;5.736;2023-06-22T00:28:05;13.00;12.00;9.25
66195;PMS7003;53000;45.182;5.736;2023-06-22T00:30:32;11.75;11.75;8.50
66195;PMS7003;53000;45.182;5.736;2023-06-22T00:32:58;14.00;13.00;8.75
66195;PMS7003;53000;45.182;5.736;2023-06-22T00:35:24;14.50;11.25;9.00
66195;PMS7003;53000;45.182;5.736;2023-06-22T00:37:54;15.25;13.00;9.75
66195;PMS7003;53000;45.182;5.736;2023-06-22T00:40:27;14.50;11.50;8.00
66195;PMS7003;53000;45.182;5.736;2023-06-22T00:42:53;15.25;11.75;9.25
66195;PMS7003;53000;45.182;5.736;2023-06-22T00:45:20;12.50;11.25;9.50
66195;PMS7003;53000;45.182;5.736;2023-06-22T00:47:46;13.50;11.75;8.00
66195;PMS7003;53000;45.182;5.736;2023-06-22T00:50:12;15.50;12.50;9.25
66195;PMS7003;53000;45.182;5.736;2023-06-22T00:52:45;12.00;9.00;3.75
66195;PMS7003;53000;45.182;5.736;2023-06-22T00:55:18;13.00;13.00;8.25
66195;PMS7003;53000;45.182;5.736;2023-06-22T00:57:46;13.50;11.75;8.00
66195;PMS7003;53000;45.182;5.736;2023-06-22T01:00:12;9.00;6.25;5.25
66195;PMS7003;53000;45.182;5.736;2023-06-22T01:02:40;15.00;11.75;7.75
66195;PMS7003;53000;45.182;5.736;2023-06-22T01:05:06;12.00;10.25;8.25
66195;PMS7003;53000;45.182;5.736;2023-06-22T01:07:35;12.75;9.00;7.75
66195;PMS7003;53000;45.182;5.736;2023-06-22T01:13:13;11.25;9.75;7.75
66195;PMS7003;53000;45.182;5.736;2023-06-22T01:15:45;13.50;10.50;8.00
66195;PMS7003;53000;45.182;5.736;2023-06-22T01:18:17;13.75;11.75;9.00
66195;PMS7003;53000;45.182;5.736;2023-06-22T01:20:44;9.75;8.75;7.25
66195;PMS7003;53000;45.182;5.736;2023-06-22T01:31:10;10.50;9.50;7.25
66195;PMS7003;53000;45.182;5.736;2023-06-22T01:33:37;14.00;10.50;8.00
66195;PMS7003;53000;45.182;5.736;2023-06-22T01:36:05;13.00;11.75;7.50
66195;PMS7003;53000;45.182;5.736;2023-06-22T01:38:32;10.00;9.50;7.00
66195;PMS7003;53000;45.182;5.736;2023-06-22T01:40:58;8.50;8.50;6.00
66195;PMS7003;53000;45.182;5.736;2023-06-22T01:43:26;15.50;12.25;8.25
66195;PMS7003;53000;45.182;5.736;2023-06-22T01:45:53;13.75;13.00;9.25
66195;PMS7003;53000;45.182;5.736;2023-06-22T01:48:19;13.00;10.50;8.50
66195;PMS7003;53000;45.182;5.736;2023-06-22T01:50:46;5.25;4.25;2.00
66195;PMS7003;53000;45.182;5.736;2023-06-22T01:53:12;14.75;11.00;8.00
66195;PMS7003;53000;45.182;5.736;2023-06-22T01:55:37;13.50;11.50;8.50
66195;PMS7003;53000;45.182;5.736;2023-06-22T01:58:02;11.00;9.25;6.75
66195;PMS7003;53000;45.182;5.736;2023-06-22T02:00:28;13.75;10.00;8.00
66195;PMS7003;53000;45.182;5.736;2023-06-22T02:03:21;12.00;9.75;8.00
66195;PMS7003;53000;45.182;5.736;2023-06-22T02:05:51;13.00;11.25;9.50
66195;PMS7003;53000;45.182;5.736;2023-06-22T02:08:46;14.25;12.25;9.75
66195;PMS7003;53000;45.182;5.736;2023-06-22T02:11:14;11.25;9.25;8.00
66195;PMS7003;53000;45.182;5.736;2023-06-22T02:13:43;9.50;9.50;6.75
66195;PMS7003;53000;45.182;5.736;2023-06-22T02:16:13;9.25;9.25;6.25
66195;PMS7003;53000;45.182;5.736;2023-06-22T02:18:45;14.25;10.00;6.00
66195;PMS7003;53000;45.182;5.736;2023-06-22T02:21:11;15.50;12.25;8.25
66195;PMS7003;53000;45.182;5.736;2023-06-22T02:23:36;14.75;12.75;9.00
66195;PMS7003;53000;45.182;5.736;2023-06-22T02:26:02;10.25;10.25;8.00
66195;PMS7003;53000;45.182;5.736;2023-06-22T02:28:28;10.75;10.75;9.00
66195;PMS7003;53000;45.182;5.736;2023-06-22T02:30:53;14.00;11.50;8.25
66195;PMS7003;53000;45.182;5.736;2023-06-22T02:33:19;12.50;10.25;7.25
66195;PMS7003;53000;45.182;5.736;2023-06-22T02:35:45;15.75;10.25;8.25
66195;PMS7003;53000;45.182;5.736;2023-06-22T02:38:13;13.75;10.75;8.00
66195;PMS7003;53000;45.182;5.736;2023-06-22T02:40:39;15.50;12.00;9.75
66195;PMS7003;53000;45.182;5.736;2023-06-22T02:43:05;10.25;10.25;7.50
66195;PMS7003;53000;45.182;5.736;2023-06-22T02:45:30;11.75;11.00;7.25
66195;PMS7003;53000;45.182;5.736;2023-06-22T02:47:56;9.00;8.25;7.00
66195;PMS7003;53000;45.182;5.736;2023-06-22T02:50:21;11.50;10.00;7.25
66195;PMS7003;53000;45.182;5.736;2023-06-22T02:52:47;13.00;11.75;8.75
66195;PMS7003;53000;45.182;5.736;2023-06-22T02:55:12;15.50;12.50;8.50
66195;PMS7003;53000;45.182;5.736;2023-06-22T02:57:37;11.50;11.50;9.00
66195;PMS7003;53000;45.182;5.736;2023-06-22T03:00:09;14.50;13.00;8.25
66195;PMS7003;53000;45.182;5.736;2023-06-22T03:02:41;46.25;37.50;24.25
66195;PMS7003;53000;45.182;5.736;2023-06-22T03:05:08;14.25;12.00;9.00
66195;PMS7003;53000;45.182;5.736;2023-06-22T03:07:38;12.25;11.25;8.00
66195;PMS7003;53000;45.182;5.736;2023-06-22T03:10:03;11.75;11.50;8.25
66195;PMS7003;53000;45.182;5.736;2023-06-22T03:12:29;13.50;11.25;8.25
66195;PMS7003;53000;45.182;5.736;2023-06-22T03:14:54;9.00;8.50;6.25
66195;PMS7003;53000;45.182;5.736;2023-06-22T03:17:20;13.00;12.00;10.00
66195;PMS7003;53000;45.182;5.736;2023-06-22T03:19:45;14.50;13.00;8.25
66195;PMS7003;53000;45.182;5.736;2023-06-22T03:22:10;9.25;7.75;7.00
66195;PMS7003;53000;45.182;5.736;2023-06-22T03:24:36;15.00;11.00;7.25
66195;PMS7003;53000;45.182;5.736;2023-06-22T03:27:04;14.00;12.00;9.50
66195;PMS7003;53000;45.182;5.736;2023-06-22T03:29:30;13.25;10.75;7.25
66195;PMS7003;53000;45.182;5.736;2023-06-22T03:31:56;11.25;11.25;8.50
66195;PMS7003;53000;45.182;5.736;2023-06-22T03:34:21;15.00;12.00;9.00
66195;PMS7003;53000;45.182;5.736;2023-06-22T03:36:46;11.50;10.50;7.00
66195;PMS7003;53000;45.182;5.736;2023-06-22T03:39:12;17.50;14.50;9.00
66195;PMS7003;53000;45.182;5.736;2023-06-22T03:41:37;18.25;13.50;9.25
66195;PMS7003;53000;45.182;5.736;2023-06-22T03:44:03;9.75;8.75;7.75
66195;PMS7003;53000;45.182;5.736;2023-06-22T03:46:29;15.25;13.00;10.00
66195;PMS7003;53000;45.182;5.736;2023-06-22T03:48:54;9.50;9.50;7.50
66195;PMS7003;53000;45.182;5.736;2023-06-22T03:51:20;16.50;13.25;10.00
66195;PMS7003;53000;45.182;5.736;2023-06-22T03:53:45;10.75;10.25;7.50
66195;PMS7003;53000;45.182;5.736;2023-06-22T03:56:11;11.50;10.25;7.00
66195;PMS7003;53000;45.182;5.736;2023-06-22T03:58:36;10.75;10.50;8.75
66195;PMS7003;53000;45.182;5.736;2023-06-22T04:01:07;9.00;9.00;7.75
66195;PMS7003;53000;45.182;5.736;2023-06-22T04:03:36;14.00;13.00;9.00
66195;PMS7003;53000;45.182;5.736;2023-06-22T04:06:02;14.00;10.50;8.00
66195;PMS7003;53000;45.182;5.736;2023-06-22T04:08:27;12.25;10.75;8.25
66195;PMS7003;53000;45.182;5.736;2023-06-22T04:10:52;11.75;10.00;8.00
66195;PMS7003;53000;45.182;5.736;2023-06-22T04:13:18;16.00;13.50;9.50
66195;PMS7003;53000;45.182;5.736;2023-06-22T04:15:44;11.25;9.50;8.25
66195;PMS7003;53000;45.182;5.736;2023-06-22T04:18:09;12.25;11.75;8.25
66195;PMS7003;53000;45.182;5.736;2023-06-22T04:20:35;15.00;11.50;8.75
66195;PMS7003;53000;45.182;5.736;2023-06-22T04:23:00;15.25;12.75;8.75
66195;PMS7003;53000;45.182;5.736;2023-06-22T04:25:26;16.00;14.25;9.75
66195;PMS7003;53000;45.182;5.736;2023-06-22T04:27:51;13.75;12.75;10.00
66195;PMS7003;53000;45.182;5.736;2023-06-22T04:30:16;16.75;15.00;10.75
66195;PMS7003;53000;45.182;5.736;2023-06-22T04:32:43;15.75;13.75;11.25
66195;PMS7003;53000;45.182;5.736;2023-06-22T04:35:09;15.25;14.25;9.50
66195;PMS7003;53000;45.182;5.736;2023-06-22T04:37:35;15.25;12.50;9.50
66195;PMS7003;53000;45.182;5.736;2023-06-22T04:40:01;16.75;16.00;11.25
66195;PMS7003;53000;45.182;5.736;2023-06-22T04:42:28;13.25;12.25;9.25
66195;PMS7003;53000;45.182;5.736;2023-06-22T04:44:54;17.00;13.25;9.00
66195;PMS7003;53000;45.182;5.736;2023-06-22T04:47:19;15.00;12.25;9.00
66195;PMS7003;53000;45.182;5.736;2023-06-22T04:49:45;12.00;12.00;7.50
66195;PMS7003;53000;45.182;5.736;2023-06-22T04:52:11;13.75;11.50;8.25
66195;PMS7003;53000;45.182;5.736;2023-06-22T04:54:38;14.75;14.00;10.00
66195;PMS7003;53000;45.182;5.736;2023-06-22T04:57:06;15.25;12.50;10.00
66195;PMS7003;53000;45.182;5.736;2023-06-22T04:59:35;14.00;11.75;9.25
66195;PMS7003;53000;45.182;5.736;2023-06-22T05:02:04;12.75;11.25;9.00
66195;PMS7003;53000;45.182;5.736;2023-06-22T05:04:30;10.50;10.00;7.00
66195;PMS7003;53000;45.182;5.736;2023-06-22T05:07:00;13.75;13.00;10.00
66195;PMS7003;53000;45.182;5.736;2023-06-22T05:09:27;11.75;11.75;9.50
66195;PMS7003;53000;45.182;5.736;2023-06-22T05:11:54;13.25;12.75;9.00
66195;PMS7003;53000;45.182;5.736;2023-06-22T05:14:21;14.75;12.75;8.75
66195;PMS7003;53000;45.182;5.736;2023-06-22T05:16:47;9.25;9.25;8.25
66195;PMS7003;53000;45.182;5.736;2023-06-22T05:19:13;11.50;11.00;9.50
66195;PMS7003;53000;45.182;5.736;2023-06-22T05:21:39;10.00;8.00;7.25
66195;PMS7003;53000;45.182;5.736;2023-06-22T05:24:04;18.25;13.25;10.00
66195;PMS7003;53000;45.182;5.736;2023-06-22T05:26:30;13.25;12.50;9.00
66195;PMS7003;53000;45.182;5.736;2023-06-22T05:28:57;16.25;13.00;8.00
66195;PMS7003;53000;45.182;5.736;2023-06-22T05:31:23;14.75;11.75;8.25
66195;PMS7003;53000;45.182;5.736;2023-06-22T05:33:50;10.00;9.00;7.25
66195;PMS7003;53000;45.182;5.736;2023-06-22T05:36:17;13.75;11.00;8.25
66195;PMS7003;53000;45.182;5.736;2023-06-22T05:38:44;11.75;9.75;8.00
66195;PMS7003;53000;45.182;5.736;2023-06-22T05:41:10;12.75;11.50;9.00
66195;PMS7003;53000;45.182;5.736;2023-06-22T05:43:36;12.00;11.25;8.50
66195;PMS7003;53000;45.182;5.736;2023-06-22T05:46:01;16.00;11.25;8.50
66195;PMS7003;53000;45.182;5.736;2023-06-22T05:48:27;11.25;10.75;7.25
66195;PMS7003;53000;45.182;5.736;2023-06-22T05:50:53;12.50;11.00;9.75
66195;PMS7003;53000;45.182;5.736;2023-06-22T05:53:19;11.50;9.50;7.50
66195;PMS7003;53000;45.182;5.736;2023-06-22T05:55:45;16.00;10.25;7.00
66195;PMS7003;53000;45.182;5.736;2023-06-22T05:58:11;17.00;12.75;9.75
66195;PMS7003;53000;45.182;5.736;2023-06-22T06:00:36;8.75;7.25;4.25
66195;PMS7003;53000;45.182;5.736;2023-06-22T06:03:02;15.50;12.25;8.50
66195;PMS7003;53000;45.182;5.736;2023-06-22T06:05:29;12.25;11.00;8.25
66195;PMS7003;53000;45.182;5.736;2023-06-22T06:07:55;12.25;11.75;9.50
66195;PMS7003;53000;45.182;5.736;2023-06-22T06:10:20;14.50;12.50;9.50
66195;PMS7003;53000;45.182;5.736;2023-06-22T06:12:46;13.25;11.25;8.50
66195;PMS7003;53000;45.182;5.736;2023-06-22T06:15:11;15.00;14.00;10.00
66195;PMS7003;53000;45.182;5.736;2023-06-22T06:17:44;16.00;13.50;10.00
66195;PMS7003;53000;45.182;5.736;2023-06-22T06:20:13;13.00;12.00;8.50
66195;PMS7003;53000;45.182;5.736;2023-06-22T06:22:38;15.50;12.75;9.25
66195;PMS7003;53000;45.182;5.736;2023-06-22T06:25:04;13.00;11.50;9.00
66195;PMS7003;53000;45.182;5.736;2023-06-22T06:27:30;17.00;14.50;10.00
66195;PMS7003;53000;45.182;5.736;2023-06-22T06:29:56;15.25;14.00;10.00
66195;PMS7003;53000;45.182;5.736;2023-06-22T06:32:21;14.25;13.75;10.00
66195;PMS7003;53000;45.182;5.736;2023-06-22T06:34:46;11.50;10.00;8.75
66195;PMS7003;53000;45.182;5.736;2023-06-22T06:37:12;13.25;12.50;9.75
66195;PMS7003;53000;45.182;5.736;2023-06-22T06:39:38;15.00;12.25;9.25
66195;PMS7003;53000;45.182;5.736;2023-06-22T06:42:04;17.50;17.25;14.00
66195;PMS7003;53000;45.182;5.736;2023-06-22T06:44:30;16.75;15.00;11.00
66195;PMS7003;53000;45.182;5.736;2023-06-22T06:46:55;13.75;12.25;10.25
66195;PMS7003;53000;45.182;5.736;2023-06-22T06:49:21;14.00;13.00;9.50
66195;PMS7003;53000;45.182;5.736;2023-06-22T06:51:46;15.50;13.25;10.25
66195;PMS7003;53000;45.182;5.736;2023-06-22T06:54:12;13.75;11.50;8.75
66195;PMS7003;53000;45.182;5.736;2023-06-22T06:56:37;17.00;11.00;8.00
66195;PMS7003;53000;45.182;5.736;2023-06-22T06:59:02;15.00;13.25;9.00
66195;PMS7003;53000;45.182;5.736;2023-06-22T07:01:28;15.75;15.00;11.00
66195;PMS7003;53000;45.182;5.736;2023-06-22T07:03:58;15.75;13.75;10.25
66195;PMS7003;53000;45.182;5.736;2023-06-22T07:06:23;15.50;14.50;10.25
66195;PMS7003;53000;45.182;5.736;2023-06-22T07:08:54;17.00;14.50;10.75
66195;PMS7003;53000;45.182;5.736;2023-06-22T07:11:20;15.75;14.25;10.25
66195;PMS7003;53000;45.182;5.736;2023-06-22T07:13:45;14.75;12.00;9.00
66195;PMS7003;53000;45.182;5.736;2023-06-22T07:16:10;13.00;12.75;9.50
66195;PMS7003;53000;45.182;5.736;2023-06-22T07:18:36;13.50;12.50;8.75
66195;PMS7003;53000;45.182;5.736;2023-06-22T07:21:01;11.75;11.75;8.75
66195;PMS7003;53000;45.182;5.736;2023-06-22T07:23:27;14.00;10.75;8.25
66195;PMS7003;53000;45.182;5.736;2023-06-22T07:25:53;15.25;9.00;6.00
66195;PMS7003;53000;45.182;5.736;2023-06-22T07:28:18;10.50;10.25;8.00
66195;PMS7003;53000;45.182;5.736;2023-06-22T07:30:44;9.25;5.50;2.25
66195;PMS7003;53000;45.182;5.736;2023-06-22T07:33:09;13.25;10.50;7.75
66195;PMS7003;53000;45.182;5.736;2023-06-22T07:35:35;7.75;5.25;5.00
66195;PMS7003;53000;45.182;5.736;2023-06-22T07:38:00;7.00;4.50;3.25
66195;PMS7003;53000;45.182;5.736;2023-06-22T07:40:26;5.50;4.00;3.00
66195;PMS7003;53000;45.182;5.736;2023-06-22T07:42:51;10.00;6.75;5.00
66195;PMS7003;53000;45.182;5.736;2023-06-22T07:45:18;6.25;6.25;4.50
66195;PMS7003;53000;45.182;5.736;2023-06-22T07:47:43;7.25;6.50;4.75
66195;PMS7003;53000;45.182;5.736;2023-06-22T07:50:09;10.25;7.50;6.00
66195;PMS7003;53000;45.182;5.736;2023-06-22T07:52:35;9.25;8.25;5.75
66195;PMS7003;53000;45.182;5.736;2023-06-22T07:55:01;4.50;4.00;4.00
66195;PMS7003;53000;45.182;5.736;2023-06-22T07:57:27;5.50;5.50;4.00
66195;PMS7003;53000;45.182;5.736;2023-06-22T07:59:58;5.75;4.25;3.00
66195;PMS7003;53000;45.182;5.736;2023-06-22T08:02:24;1.00;0.00;0.00
66195;PMS7003;53000;45.182;5.736;2023-06-22T08:04:50;3.75;3.50;3.00
66195;PMS7003;53000;45.182;5.736;2023-06-22T08:07:15;4.00;3.00;1.67
66195;PMS7003;53000;45.182;5.736;2023-06-22T08:09:42;4.00;3.00;2.00
66195;PMS7003;53000;45.182;5.736;2023-06-22T08:12:12;2.50;2.25;1.50
66195;PMS7003;53000;45.182;5.736;2023-06-22T08:14:38;7.00;4.75;3.50
66195;PMS7003;53000;45.182;5.736;2023-06-22T08:17:08;5.50;4.50;2.50
66195;PMS7003;53000;45.182;5.736;2023-06-22T08:19:33;2.50;2.00;1.25
66195;PMS7003;53000;45.182;5.736;2023-06-22T08:21:59;4.75;4.00;3.00
66195;PMS7003;53000;45.182;5.736;2023-06-22T08:24:24;2.00;1.00;0.33
66195;PMS7003;53000;45.182;5.736;2023-06-22T08:26:51;2.33;2.33;1.33
66195;PMS7003;53000;45.182;5.736;2023-06-22T08:29:17;2.67;2.33;2.00
66195;PMS7003;53000;45.182;5.736;2023-06-22T08:31:42;3.67;2.00;1.00
66195;PMS7003;53000;45.182;5.736;2023-06-22T08:34:07;6.00;3.75;3.00
66195;PMS7003;53000;45.182;5.736;2023-06-22T08:36:32;2.25;2.25;1.50
66195;PMS7003;53000;45.182;5.736;2023-06-22T08:39:02;3.33;2.67;2.00
66195;PMS7003;53000;45.182;5.736;2023-06-22T08:41:28;5.00;3.00;2.00
66195;PMS7003;53000;45.182;5.736;2023-06-22T08:43:54;6.25;4.25;2.00
66195;PMS7003;53000;45.182;5.736;2023-06-22T08:46:19;5.00;3.00;2.67
66195;PMS7003;53000;45.182;5.736;2023-06-22T08:48:48;4.33;3.00;2.67
66195;PMS7003;53000;45.182;5.736;2023-06-22T08:51:14;3.67;2.67;2.33
66195;PMS7003;53000;45.182;5.736;2023-06-22T08:53:39;4.50;2.00;1.25
66195;PMS7003;53000;45.182;5.736;2023-06-22T08:56:04;4.33;2.00;1.33
66195;PMS7003;53000;45.182;5.736;2023-06-22T08:58:30;3.75;3.00;2.00
66195;PMS7003;53000;45.182;5.736;2023-06-22T09:00:55;2.67;2.00;1.00
66195;PMS7003;53000;45.182;5.736;2023-06-22T09:03:20;3.67;2.67;2.00
66195;PMS7003;53000;45.182;5.736;2023-06-22T09:05:46;8.00;6.00;3.50
66195;PMS7003;53000;45.182;5.736;2023-06-22T09:08:11;3.75;3.75;3.00
66195;PMS7003;53000;45.182;5.736;2023-06-22T09:10:37;3.75;2.75;2.50
66195;PMS7003;53000;45.182;5.736;2023-06-22T09:13:02;5.00;3.75;3.00
66195;PMS7003;53000;45.182;5.736;2023-06-22T09:15:27;6.75;3.00;2.00
66195;PMS7003;53000;45.182;5.736;2023-06-22T09:17:53;5.00;4.00;2.00
66195;PMS7003;53000;45.182;5.736;2023-06-22T09:20:19;4.00;3.25;3.00
66195;PMS7003;53000;45.182;5.736;2023-06-22T09:22:44;4.50;3.00;2.00
66195;PMS7003;53000;45.182;5.736;2023-06-22T09:25:10;6.25;3.50;2.75
66195;PMS7003;53000;45.182;5.736;2023-06-22T09:27:35;7.00;5.00;3.50
66195;PMS7003;53000;45.182;5.736;2023-06-22T09:30:01;4.75;3.00;2.00
66195;PMS7003;53000;45.182;5.736;2023-06-22T09:32:27;2.50;2.00;1.00
66195;PMS7003;53000;45.182;5.736;2023-06-22T09:34:52;5.00;3.75;2.25
66195;PMS7003;53000;45.182;5.736;2023-06-22T09:37:18;3.75;3.25;3.00
66195;PMS7003;53000;45.182;5.736;2023-06-22T09:39:43;5.75;4.00;1.75
66195;PMS7003;53000;45.182;5.736;2023-06-22T09:42:08;7.75;3.25;2.25
66195;PMS7003;53000;45.182;5.736;2023-06-22T09:44:34;3.00;0.00;0.00
66195;PMS7003;53000;45.182;5.736;2023-06-22T09:46:59;4.50;4.50;3.00
66195;PMS7003;53000;45.182;5.736;2023-06-22T09:49:25;2.50;2.25;2.00
66195;PMS7003;53000;45.182;5.736;2023-06-22T09:51:51;5.00;5.00;3.00
66195;PMS7003;53000;45.182;5.736;2023-06-22T09:54:17;4.25;3.25;3.00
66195;PMS7003;53000;45.182;5.736;2023-06-22T09:56:42;3.75;3.00;1.50
66195;PMS7003;53000;45.182;5.736;2023-06-22T09:59:08;4.00;2.25;1.75
66195;PMS7003;53000;45.182;5.736;2023-06-22T10:01:33;5.50;3.00;2.00
66195;PMS7003;53000;45.182;5.736;2023-06-22T10:03:58;4.25;3.25;2.00
66195;PMS7003;53000;45.182;5.736;2023-06-22T10:06:24;4.75;4.00;3.00
66195;PMS7003;53000;45.182;5.736;2023-06-22T10:08:50;5.75;3.00;2.00
66195;PMS7003;53000;45.182;5.736;2023-06-22T10:11:16;6.00;4.00;3.25
66195;PMS7003;53000;45.182;5.736;2023-06-22T10:13:42;5.50;4.75;3.75
66195;PMS7003;53000;45.182;5.736;2023-06-22T10:16:07;5.25;4.50;3.00
66195;PMS7003;53000;45.182;5.736;2023-06-22T10:18:32;6.00;5.00;3.25
66195;PMS7003;53000;45.182;5.736;2023-06-22T10:20:58;0.50;0.50;0.00
66195;PMS7003;53000;45.182;5.736;2023-06-22T10:23:23;6.00;4.25;3.00
66195;PMS7003;53000;45.182;5.736;2023-06-22T10:25:49;7.75;4.50;3.75
66195;PMS7003;53000;45.182;5.736;2023-06-22T10:28:14;6.00;5.25;4.00
66195;PMS7003;53000;45.182;5.736;2023-06-22T10:30:40;5.00;3.00;3.00
66195;PMS7003;53000;45.182;5.736;2023-06-22T10:33:06;6.00;3.50;3.00
66195;PMS7003;53000;45.182;5.736;2023-06-22T10:35:35;7.00;6.00;3.00
66195;PMS7003;53000;45.182;5.736;2023-06-22T10:38:02;5.75;5.00;3.50
66195;PMS7003;53000;45.182;5.736;2023-06-22T10:40:28;3.00;3.00;2.25
66195;PMS7003;53000;45.182;5.736;2023-06-22T10:42:54;5.75;4.00;2.75
66195;PMS7003;53000;45.182;5.736;2023-06-22T10:45:19;5.25;5.00;3.50
66195;PMS7003;53000;45.182;5.736;2023-06-22T10:47:45;5.25;4.00;3.00
66195;PMS7003;53000;45.182;5.736;2023-06-22T10:50:10;5.75;5.00;3.00
66195;PMS7003;53000;45.182;5.736;2023-06-22T10:52:36;4.00;3.25;3.00
66195;PMS7003;53000;45.182;5.736;2023-06-22T10:55:02;3.00;3.00;2.00
66195;PMS7003;53000;45.182;5.736;2023-06-22T10:57:27;4.00;2.25;2.00
66195;PMS7003;53000;45.182;5.736;2023-06-22T10:59:52;5.50;3.00;2.00
66195;PMS7003;53000;45.182;5.736;2023-06-22T11:02:18;8.75;5.25;3.25
66195;PMS7003;53000;45.182;5.736;2023-06-22T11:04:43;3.25;3.25;2.25
66195;PMS7003;53000;45.182;5.736;2023-06-22T11:07:09;3.25;2.00;1.75
66195;PMS7003;53000;45.182;5.736;2023-06-22T11:09:35;2.25;2.00;1.00
66195;PMS7003;53000;45.182;5.736;2023-06-22T11:12:00;8.25;5.00;4.00
66195;PMS7003;53000;45.182;5.736;2023-06-22T11:14:26;5.00;4.25;3.00
66195;PMS7003;53000;45.182;5.736;2023-06-22T11:16:52;5.25;3.00;2.00
66195;PMS7003;53000;45.182;5.736;2023-06-22T11:19:18;6.00;3.00;2.25
66195;PMS7003;53000;45.182;5.736;2023-06-22T11:21:44;5.50;5.00;4.00
66195;PMS7003;53000;45.182;5.736;2023-06-22T11:24:09;5.75;2.50;2.00
66195;PMS7003;53000;45.182;5.736;2023-06-22T11:26:34;3.25;3.25;2.25
66195;PMS7003;53000;45.182;5.736;2023-06-22T11:29:00;3.00;3.00;2.00
66195;PMS7003;53000;45.182;5.736;2023-06-22T11:31:26;6.50;5.00;3.00
66195;PMS7003;53000;45.182;5.736;2023-06-22T11:33:52;4.75;3.50;2.25
66195;PMS7003;53000;45.182;5.736;2023-06-22T11:36:17;5.50;5.00;3.00
66195;PMS7003;53000;45.182;5.736;2023-06-22T11:38:44;5.25;3.25;3.00
66195;PMS7003;53000;45.182;5.736;2023-06-22T11:41:09;6.25;4.50;4.00
66195;PMS7003;53000;45.182;5.736;2023-06-22T11:43:35;6.00;4.25;3.75
66195;PMS7003;53000;45.182;5.736;2023-06-22T11:46:02;4.25;3.25;3.00
66195;PMS7003;53000;45.182;5.736;2023-06-22T11:48:28;5.50;4.50;3.25
66195;PMS7003;53000;45.182;5.736;2023-06-22T11:50:54;5.50;4.25;3.25
66195;PMS7003;53000;45.182;5.736;2023-06-22T11:53:20;7.00;5.00;4.00
66195;PMS7003;53000;45.182;5.736;2023-06-22T11:55:46;6.00;5.00;3.00
66195;PMS7003;53000;45.182;5.736;2023-06-22T11:58:12;4.00;4.00;3.50
66195;PMS7003;53000;45.182;5.736;2023-06-22T12:00:37;6.00;4.00;3.00
66195;PMS7003;53000;45.182;5.736;2023-06-22T12:03:03;4.50;4.50;3.75
66195;PMS7003;53000;45.182;5.736;2023-06-22T12:05:29;6.00;5.00;4.00
66195;PMS7003;53000;45.182;5.736;2023-06-22T12:07:54;4.25;3.50;3.25
66195;PMS7003;53000;45.182;5.736;2023-06-22T12:10:20;4.00;4.00;3.00
66195;PMS7003;53000;45.182;5.736;2023-06-22T12:12:47;5.00;3.00;1.00
66195;PMS7003;53000;45.182;5.736;2023-06-22T12:15:12;5.75;3.50;2.75
66195;PMS7003;53000;45.182;5.736;2023-06-22T12:17:38;5.00;5.00;3.00
66195;PMS7003;53000;45.182;5.736;2023-06-22T12:20:03;4.75;4.75;4.00
66195;PMS7003;53000;45.182;5.736;2023-06-22T12:22:33;4.25;3.00;2.75
66195;PMS7003;53000;45.182;5.736;2023-06-22T12:24:59;4.25;4.00;3.25
66195;PMS7003;53000;45.182;5.736;2023-06-22T12:27:25;7.00;4.50;3.50
66195;PMS7003;53000;45.182;5.736;2023-06-22T12:29:51;4.75;3.75;3.00
66195;PMS7003;53000;45.182;5.736;2023-06-22T12:32:16;6.00;4.25;4.00
66195;PMS7003;53000;45.182;5.736;2023-06-22T12:34:42;3.00;3.00;2.00
66195;PMS7003;53000;45.182;5.736;2023-06-22T12:37:08;5.25;4.25;4.00
66195;PMS7003;53000;45.182;5.736;2023-06-22T12:39:34;5.25;4.75;3.75
66195;PMS7003;53000;45.182;5.736;2023-06-22T12:41:59;2.50;2.25;1.25
66195;PMS7003;53000;45.182;5.736;2023-06-22T12:44:25;5.25;4.50;3.50
66195;PMS7003;53000;45.182;5.736;2023-06-22T12:46:50;6.50;3.00;3.00
66195;PMS7003;53000;45.182;5.736;2023-06-22T12:49:16;5.00;5.00;3.00
66195;PMS7003;53000;45.182;5.736;2023-06-22T12:51:41;4.75;4.75;3.50
66195;PMS7003;53000;45.182;5.736;2023-06-22T12:54:08;8.00;4.50;3.50
66195;PMS7003;53000;45.182;5.736;2023-06-22T12:56:33;5.25;4.00;2.75
66195;PMS7003;53000;45.182;5.736;2023-06-22T12:58:59;5.50;5.00;3.25
66195;PMS7003;53000;45.182;5.736;2023-06-22T13:01:26;3.25;3.25;2.25
66195;PMS7003;53000;45.182;5.736;2023-06-22T13:03:52;5.50;4.25;3.50
66195;PMS7003;53000;45.182;5.736;2023-06-22T13:06:18;6.75;4.00;3.00
66195;PMS7003;53000;45.182;5.736;2023-06-22T13:08:43;6.00;4.50;4.00
66195;PMS7003;53000;45.182;5.736;2023-06-22T13:11:09;5.00;4.00;3.00
66195;PMS7003;53000;45.182;5.736;2023-06-22T13:13:34;5.75;5.75;5.00
66195;PMS7003;53000;45.182;5.736;2023-06-22T13:15:59;7.50;5.25;4.75
66195;PMS7003;53000;45.182;5.736;2023-06-22T13:18:25;7.50;6.25;5.00
66195;PMS7003;53000;45.182;5.736;2023-06-22T13:20:50;5.25;3.75;3.00
66195;PMS7003;53000;45.182;5.736;2023-06-22T13:23:15;7.75;4.00;3.25
66195;PMS7003;53000;45.182;5.736;2023-06-22T13:25:41;6.75;5.00;4.00
66195;PMS7003;53000;45.182;5.736;2023-06-22T13:28:06;0.00;0.00;0.00
66195;PMS7003;53000;45.182;5.736;2023-06-22T13:30:32;10.25;7.25;5.00
66195;PMS7003;53000;45.182;5.736;2023-06-22T13:32:57;7.00;7.00;5.25
66195;PMS7003;53000;45.182;5.736;2023-06-22T13:35:22;5.75;5.25;4.25
66195;PMS7003;53000;45.182;5.736;2023-06-22T13:37:48;8.25;7.00;5.00
66195;PMS7003;53000;45.182;5.736;2023-06-22T13:40:14;9.25;9.00;6.00
66195;PMS7003;53000;45.182;5.736;2023-06-22T13:42:39;10.00;8.00;5.00
66195;PMS7003;53000;45.182;5.736;2023-06-22T13:45:05;5.00;5.00;4.00
66195;PMS7003;53000;45.182;5.736;2023-06-22T13:47:32;8.25;7.00;5.00
66195;PMS7003;53000;45.182;5.736;2023-06-22T13:49:58;5.25;5.00;3.75
66195;PMS7003;53000;45.182;5.736;2023-06-22T13:52:23;5.75;4.25;3.00
66195;PMS7003;53000;45.182;5.736;2023-06-22T13:54:49;4.25;3.00;2.00
66195;PMS7003;53000;45.182;5.736;2023-06-22T13:57:14;5.50;4.00;3.25
66195;PMS7003;53000;45.182;5.736;2023-06-22T13:59:40;2.00;2.00;1.00
66195;PMS7003;53000;45.182;5.736;2023-06-22T14:02:05;2.00;0.75;0.75
66195;PMS7003;53000;45.182;5.736;2023-06-22T14:04:31;0.00;0.00;0.00
66195;PMS7003;53000;45.182;5.736;2023-06-22T14:06:56;1.33;0.33;0.00
66195;PMS7003;53000;45.182;5.736;2023-06-22T14:09:21;0.00;0.00;0.00
66195;PMS7003;53000;45.182;5.736;2023-06-22T14:11:47;0.00;0.00;0.00
66195;PMS7003;53000;45.182;5.736;2023-06-22T14:14:12;3.67;0.00;0.00